Time;durP1;ratioP1;P1;durP2;ratioP2;P2;SDS_P1;SDS_P2;PMS_P1;PMS_P2;Temp;Humidity;BMP_temperature;BMP_pressure;BME280_temperature;BME280_humidity;BME280_pressure;Samples;Min_cycle;Max_cycle;Signal;HPM_P1;HPM_P2
2023/04/13 00:00:47;;;;;;;1.53;1.30;;;7.80;98.20;;;;;;5003160;28;20460;-77
2023/04/13 00:03:15;;;;;;;1.50;1.30;;;7.80;98.20;;;;;;5022556;28;20707;-77
2023/04/13 00:05:42;;;;;;;1.60;1.30;;;7.80;98.20;;;;;;5008752;28;20622;-76
2023/04/13 00:08:11;;;;;;;1.50;1.20;;;7.90;98.20;;;;;;5014671;28;20484;-76
2023/04/13 00:10:40;;;;;;;1.53;1.20;;;7.90;98.20;;;;;;5010423;28;20456;-77
2023/04/13 00:13:10;;;;;;;1.50;1.20;;;7.90;98.20;;;;;;5013438;28;20571;-77
2023/04/13 00:15:40;;;;;;;1.60;1.30;;;7.90;98.20;;;;;;5009086;28;20515;-78
2023/04/13 00:18:07;;;;;;;1.50;1.20;;;7.90;98.20;;;;;;5011180;28;20483;-78
2023/04/13 00:20:34;;;;;;;1.53;1.20;;;7.90;98.20;;;;;;5010462;28;21117;-77
2023/04/13 00:23:01;;;;;;;1.50;1.30;;;7.90;98.20;;;;;;5043493;28;20489;-77
2023/04/13 00:25:29;;;;;;;1.50;1.20;;;7.90;98.20;;;;;;5029734;28;20490;-79
2023/04/13 00:27:56;;;;;;;1.50;1.30;;;7.90;98.20;;;;;;5037306;28;20489;-77
2023/04/13 00:30:23;;;;;;;1.50;1.20;;;7.90;98.20;;;;;;5009181;28;20464;-80
2023/04/13 00:32:50;;;;;;;1.50;1.20;;;7.90;98.20;;;;;;5020596;28;20682;-79
2023/04/13 00:35:23;;;;;;;1.50;1.27;;;7.90;98.20;;;;;;5015693;28;20471;-78
2023/04/13 00:37:50;;;;;;;1.50;1.20;;;7.90;98.20;;;;;;5031296;28;20478;-79
2023/04/13 00:40:17;;;;;;;1.60;1.40;;;8.00;98.20;;;;;;5014559;28;20494;-78
2023/04/13 00:42:46;;;;;;;1.60;1.40;;;8.00;98.20;;;;;;5021833;28;21012;-78
2023/04/13 00:45:14;;;;;;;1.50;1.20;;;8.00;98.20;;;;;;5014800;28;20460;-78
2023/04/13 00:47:45;;;;;;;1.50;1.20;;;8.00;98.20;;;;;;5034625;28;20494;-78
2023/04/13 00:50:12;;;;;;;1.57;1.30;;;8.00;98.20;;;;;;5016715;28;20526;-77
2023/04/13 00:52:41;;;;;;;1.50;1.20;;;8.10;98.20;;;;;;5033598;28;20489;-78
2023/04/13 00:55:09;;;;;;;1.60;1.40;;;8.10;98.20;;;;;;5013958;28;20467;-78
2023/04/13 00:57:39;;;;;;;1.53;1.20;;;8.10;98.20;;;;;;5031576;28;20575;-78
2023/04/13 01:00:09;;;;;;;1.57;1.40;;;8.20;98.20;;;;;;5012868;28;20542;-79
2023/04/13 01:02:40;;;;;;;1.50;1.20;;;8.20;98.20;;;;;;5032108;28;20555;-83
2023/04/13 01:05:10;;;;;;;1.50;1.20;;;8.10;98.20;;;;;;5023948;28;20463;-78
2023/04/13 01:07:47;;;;;;;1.50;1.20;;;8.10;98.20;;;;;;5028212;28;20486;-79
2023/04/13 01:10:20;;;;;;;1.57;1.30;;;8.10;98.20;;;;;;5027868;28;20455;-76
2023/04/13 01:12:56;;;;;;;1.50;1.20;;;8.20;98.20;;;;;;5027436;28;20490;-77
2023/04/13 01:15:26;;;;;;;1.50;1.20;;;8.20;98.20;;;;;;5026540;28;20485;-76
2023/04/13 01:17:58;;;;;;;1.57;1.20;;;8.20;98.20;;;;;;5022833;28;20984;-77
2023/04/13 01:20:27;;;;;;;1.50;1.20;;;8.20;98.20;;;;;;5021921;28;20574;-77
2023/04/13 01:22:57;;;;;;;1.50;1.20;;;8.20;98.20;;;;;;5042460;28;20540;-77
2023/04/13 01:25:37;;;;;;;1.50;1.20;;;8.20;98.20;;;;;;5007393;28;20471;-77
2023/04/13 01:28:08;;;;;;;1.50;1.30;;;8.20;98.20;;;;;;5035441;28;20557;-77
2023/04/13 01:30:36;;;;;;;1.53;1.30;;;8.20;98.20;;;;;;5016537;28;20469;-77
2023/04/13 01:33:04;;;;;;;1.50;1.20;;;8.20;98.20;;;;;;5016991;28;21067;-77
2023/04/13 01:35:32;;;;;;;1.50;1.20;;;8.20;98.20;;;;;;5024903;28;20956;-77
2023/04/13 01:37:59;;;;;;;1.50;1.20;;;8.20;98.20;;;;;;5021421;28;20486;-77
2023/04/13 01:40:29;;;;;;;1.50;1.10;;;8.20;98.20;;;;;;5027248;28;20483;-78
2023/04/13 01:42:57;;;;;;;1.50;1.20;;;8.20;98.20;;;;;;5030881;28;20489;-78
2023/04/13 01:45:27;;;;;;;1.50;1.20;;;8.20;98.20;;;;;;5029388;28;20539;-77
2023/04/13 01:48:01;;;;;;;1.60;1.40;;;8.20;98.20;;;;;;5024117;28;20482;-77
2023/04/13 01:50:29;;;;;;;1.50;1.20;;;8.20;98.20;;;;;;5030763;28;20454;-77
2023/04/13 01:53:06;;;;;;;1.50;1.20;;;8.20;98.20;;;;;;5042763;28;20485;-76
2023/04/13 01:55:36;;;;;;;1.50;1.20;;;8.20;98.20;;;;;;5030555;28;20470;-77
2023/04/13 01:58:04;;;;;;;1.50;1.10;;;8.20;98.20;;;;;;5020823;28;20970;-77
2023/04/13 02:00:35;;;;;;;1.50;1.20;;;8.20;98.20;;;;;;5026384;28;20872;-76
2023/04/13 02:03:04;;;;;;;1.50;1.20;;;8.20;98.20;;;;;;5042889;28;20534;-77
2023/04/13 02:05:31;;;;;;;1.53;1.27;;;8.20;98.20;;;;;;5024694;28;20984;-77
2023/04/13 02:07:57;;;;;;;1.50;1.20;;;8.10;98.20;;;;;;5029034;28;20514;-77
2023/04/13 02:10:25;;;;;;;1.50;1.20;;;8.20;98.20;;;;;;5030497;28;20459;-77
2023/04/13 02:12:53;;;;;;;1.50;1.20;;;8.10;98.20;;;;;;5032685;28;20978;-77
2023/04/13 02:15:20;;;;;;;1.53;1.20;;;8.10;98.20;;;;;;5022045;28;20927;-76
2023/04/13 02:17:48;;;;;;;1.50;1.20;;;8.10;98.20;;;;;;5029284;28;20492;-76
2023/04/13 02:20:14;;;;;;;1.53;1.20;;;8.10;98.20;;;;;;5026469;28;20516;-77
2023/04/13 02:22:42;;;;;;;1.50;1.20;;;8.20;98.20;;;;;;5033078;28;21037;-76
2023/04/13 02:25:11;;;;;;;1.50;1.20;;;8.20;98.20;;;;;;5025005;28;20958;-76
2023/04/13 02:27:38;;;;;;;1.50;1.20;;;8.20;98.20;;;;;;5030350;28;20482;-77
2023/04/13 02:30:06;;;;;;;1.50;1.20;;;8.20;98.20;;;;;;5025513;28;20463;-76
2023/04/13 02:32:34;;;;;;;1.50;1.20;;;8.20;98.20;;;;;;5029686;28;20489;-77
2023/04/13 02:35:03;;;;;;;1.50;1.20;;;8.20;98.20;;;;;;5028150;28;20881;-76
2023/04/13 02:37:31;;;;;;;1.50;1.17;;;8.20;98.20;;;;;;5019326;28;20483;-77
2023/04/13 02:39:58;;;;;;;1.50;1.20;;;8.20;98.20;;;;;;5022992;28;20816;-79
2023/04/13 02:42:26;;;;;;;1.50;1.10;;;8.20;98.20;;;;;;5030476;28;20487;-78
2023/04/13 02:44:54;;;;;;;1.50;1.20;;;8.20;98.20;;;;;;5030162;28;20486;-79
2023/04/13 02:47:21;;;;;;;1.53;1.20;;;8.30;98.20;;;;;;5035962;28;20478;-78
2023/04/13 02:49:48;;;;;;;1.50;1.20;;;8.30;98.20;;;;;;5034904;28;20923;-79
2023/04/13 02:52:16;;;;;;;1.50;1.20;;;8.30;98.20;;;;;;5029069;28;20490;-78
2023/04/13 02:54:43;;;;;;;1.50;1.23;;;8.30;98.20;;;;;;5026435;28;20464;-78
2023/04/13 02:57:12;;;;;;;1.50;1.20;;;8.30;98.20;;;;;;5034615;28;20501;-79
2023/04/13 02:59:39;;;;;;;1.50;1.30;;;8.30;98.20;;;;;;5036722;28;20483;-77
2023/04/13 03:02:06;;;;;;;1.50;1.20;;;8.30;98.20;;;;;;5025542;28;20483;-79
2023/04/13 03:04:32;;;;;;;1.50;1.20;;;8.40;98.20;;;;;;5028111;28;20475;-79
2023/04/13 03:07:03;;;;;;;1.50;1.17;;;8.30;98.20;;;;;;5029462;28;20501;-77
2023/04/13 03:09:32;;;;;;;1.50;1.20;;;8.40;98.20;;;;;;5038643;28;20746;-78
2023/04/13 03:11:58;;;;;;;1.50;1.20;;;8.40;98.20;;;;;;5029659;28;21251;-78
2023/04/13 03:14:28;;;;;;;1.50;1.20;;;8.40;98.20;;;;;;5028692;28;20479;-77
2023/04/13 03:16:56;;;;;;;1.50;1.20;;;8.40;98.20;;;;;;5029980;28;20470;-78
2023/04/13 03:19:23;;;;;;;1.50;1.23;;;8.40;98.20;;;;;;5037209;28;20464;-79
2023/04/13 03:21:50;;;;;;;1.50;1.17;;;8.40;98.20;;;;;;5032046;28;20914;-77
2023/04/13 03:24:16;;;;;;;1.50;1.20;;;8.40;98.20;;;;;;5041057;28;20477;-78
2023/04/13 03:26:45;;;;;;;1.50;1.30;;;8.40;98.20;;;;;;5023034;28;20487;-80
2023/04/13 03:29:12;;;;;;;1.50;1.20;;;8.50;98.20;;;;;;5025470;28;20464;-78
2023/04/13 03:31:38;;;;;;;1.53;1.30;;;8.50;98.20;;;;;;5034008;28;20493;-77
2023/04/13 03:34:05;;;;;;;1.50;1.20;;;8.40;98.20;;;;;;5033539;28;20466;-77
2023/04/13 03:36:32;;;;;;;1.50;1.03;;;8.50;98.20;;;;;;5022214;28;20497;-80
2023/04/13 03:39:00;;;;;;;1.50;1.10;;;8.50;98.20;;;;;;5027345;28;21202;-78
2023/04/13 03:41:27;;;;;;;1.50;1.20;;;8.50;98.20;;;;;;5027365;28;20486;-78
2023/04/13 03:43:55;;;;;;;1.50;1.20;;;8.50;98.20;;;;;;5039099;28;20490;-80
2023/04/13 03:46:22;;;;;;;1.50;1.20;;;8.50;98.20;;;;;;5024942;28;20567;-80
2023/04/13 03:48:49;;;;;;;1.50;1.20;;;8.50;98.20;;;;;;5030391;28;20464;-79
2023/04/13 03:51:16;;;;;;;1.50;1.20;;;8.50;98.20;;;;;;5014722;28;20538;-78
2023/04/13 03:53:42;;;;;;;1.50;1.10;;;8.50;98.20;;;;;;5039134;28;20518;-78
2023/04/13 03:56:09;;;;;;;1.50;1.20;;;8.50;98.20;;;;;;5014941;28;20827;-78
2023/04/13 03:58:36;;;;;;;1.50;1.20;;;8.50;98.20;;;;;;5038325;28;20469;-78
2023/04/13 04:01:05;;;;;;;1.50;1.20;;;8.50;98.20;;;;;;5014262;28;20490;-79
2023/04/13 04:03:32;;;;;;;1.50;1.20;;;8.50;98.20;;;;;;5037372;28;20546;-77
2023/04/13 04:05:59;;;;;;;1.50;1.20;;;8.50;98.20;;;;;;5015160;28;20506;-78
2023/04/13 04:08:26;;;;;;;1.50;1.13;;;8.50;98.20;;;;;;5045436;28;20459;-78
2023/04/13 04:10:53;;;;;;;1.50;1.13;;;8.50;98.20;;;;;;5017299;28;20455;-79
2023/04/13 04:13:20;;;;;;;1.50;1.10;;;8.50;98.20;;;;;;5035337;28;20862;-80
2023/04/13 04:15:47;;;;;;;1.50;1.10;;;8.50;98.20;;;;;;5014239;28;20464;-78
2023/04/13 04:18:15;;;;;;;1.50;1.20;;;8.40;98.20;;;;;;5044928;28;20493;-78
2023/04/13 04:20:41;;;;;;;1.50;1.20;;;8.40;98.20;;;;;;5028345;28;20600;-78
2023/04/13 04:23:08;;;;;;;1.50;1.20;;;8.40;98.20;;;;;;5040056;28;20916;-78
2023/04/13 04:25:36;;;;;;;1.50;1.10;;;8.40;98.20;;;;;;5025001;28;20503;-78
2023/04/13 04:28:05;;;;;;;1.50;1.30;;;8.40;98.20;;;;;;5043719;28;20512;-78
2023/04/13 04:30:32;;;;;;;1.50;1.20;;;8.40;98.20;;;;;;5019504;28;20465;-79
2023/04/13 04:33:00;;;;;;;1.50;1.20;;;8.40;98.20;;;;;;5040448;28;20737;-78
2023/04/13 04:35:32;;;;;;;1.50;1.20;;;8.40;98.20;;;;;;5027956;28;20483;-78
2023/04/13 04:38:02;;;;;;;1.50;1.17;;;8.40;98.20;;;;;;5019249;28;20545;-78
2023/04/13 04:40:29;;;;;;;1.50;1.13;;;8.30;98.20;;;;;;5035520;28;20487;-77
2023/04/13 04:42:56;;;;;;;1.50;1.10;;;8.40;98.20;;;;;;5034444;28;20481;-79
2023/04/13 04:45:26;;;;;;;1.50;1.10;;;8.30;98.20;;;;;;5028291;28;21028;-77
2023/04/13 04:47:56;;;;;;;1.50;1.10;;;8.30;98.20;;;;;;5037318;28;20483;-78
2023/04/13 04:50:24;;;;;;;1.50;1.10;;;8.30;98.20;;;;;;5030957;28;20934;-78
2023/04/13 04:52:53;;;;;;;1.50;1.20;;;8.30;98.20;;;;;;5025053;28;20587;-78
2023/04/13 04:55:20;;;;;;;1.50;1.10;;;8.30;98.20;;;;;;5025770;28;20463;-78
2023/04/13 04:57:48;;;;;;;1.50;1.30;;;8.30;98.20;;;;;;5023339;28;20482;-78
2023/04/13 05:00:16;;;;;;;1.50;1.23;;;8.30;98.20;;;;;;5033318;28;20574;-78
2023/04/13 05:02:43;;;;;;;1.50;1.20;;;8.20;98.20;;;;;;5024250;28;20486;-78
2023/04/13 05:05:11;;;;;;;1.50;1.20;;;8.30;98.20;;;;;;5028504;28;20455;-78
2023/04/13 05:07:38;;;;;;;1.50;1.20;;;8.20;98.20;;;;;;5032132;28;20509;-78
2023/04/13 05:10:07;;;;;;;1.50;1.10;;;8.20;98.20;;;;;;5026775;28;20468;-78
2023/04/13 05:12:34;;;;;;;1.50;1.20;;;8.20;98.20;;;;;;5036653;28;20687;-78
2023/04/13 05:15:01;;;;;;;1.50;1.10;;;8.20;98.20;;;;;;5022086;28;21113;-77
2023/04/13 05:17:28;;;;;;;1.50;1.10;;;8.20;98.20;;;;;;5025415;28;20483;-78
2023/04/13 05:19:55;;;;;;;1.50;1.20;;;8.20;98.20;;;;;;5038073;28;20674;-78
2023/04/13 05:22:22;;;;;;;1.50;1.20;;;8.20;98.20;;;;;;5034810;28;20547;-77
2023/04/13 05:24:48;;;;;;;1.50;1.10;;;8.20;98.20;;;;;;5034186;28;20525;-75
2023/04/13 05:27:17;;;;;;;1.50;1.20;;;8.20;98.20;;;;;;5029417;28;20490;-78
2023/04/13 05:29:43;;;;;;;1.50;1.20;;;8.20;98.20;;;;;;5034810;28;20522;-78
2023/04/13 05:32:10;;;;;;;1.50;1.20;;;8.10;98.20;;;;;;5022538;28;20704;-78
2023/04/13 05:34:37;;;;;;;1.50;1.30;;;8.10;98.20;;;;;;5037410;28;20917;-78
2023/04/13 05:37:04;;;;;;;1.57;1.40;;;8.10;98.20;;;;;;5029613;28;20489;-78
2023/04/13 05:39:31;;;;;;;1.50;1.20;;;8.10;98.20;;;;;;5033820;28;20458;-78
2023/04/13 05:41:58;;;;;;;1.50;1.20;;;8.10;98.20;;;;;;5028700;28;20478;-78
2023/04/13 05:44:26;;;;;;;1.50;1.20;;;8.10;98.20;;;;;;5036818;28;20471;-77
2023/04/13 05:46:53;;;;;;;1.50;1.20;;;8.10;98.20;;;;;;5026455;28;21028;-78
2023/04/13 05:49:20;;;;;;;1.50;1.17;;;8.10;98.20;;;;;;5036252;28;20837;-78
2023/04/13 05:51:47;;;;;;;1.50;1.20;;;8.10;98.20;;;;;;5022760;28;20945;-78
2023/04/13 05:54:16;;;;;;;1.50;1.27;;;8.10;98.20;;;;;;5038775;28;20455;-77
2023/04/13 05:56:43;;;;;;;1.50;1.20;;;8.10;98.20;;;;;;5032428;28;20945;-76
2023/04/13 05:59:10;;;;;;;1.50;1.30;;;8.10;98.20;;;;;;5036386;28;20459;-77
2023/04/13 06:01:38;;;;;;;1.50;1.20;;;8.10;98.20;;;;;;5025230;28;20491;-76
2023/04/13 06:04:05;;;;;;;1.60;1.47;;;8.20;98.20;;;;;;5031990;28;20460;-77
2023/04/13 06:06:32;;;;;;;1.50;1.13;;;8.20;98.20;;;;;;5018749;28;20481;-76
2023/04/13 06:08:59;;;;;;;1.53;1.20;;;8.20;98.20;;;;;;5034971;28;20567;-77
2023/04/13 06:11:26;;;;;;;1.50;1.20;;;8.20;98.20;;;;;;5026041;28;20491;-76
2023/04/13 06:13:53;;;;;;;1.50;1.23;;;8.30;98.20;;;;;;5038422;28;20618;-76
2023/04/13 06:16:20;;;;;;;1.50;1.30;;;8.30;98.20;;;;;;5020117;28;20471;-77
2023/04/13 06:18:48;;;;;;;1.50;1.20;;;8.40;98.20;;;;;;5040180;28;20459;-77
2023/04/13 06:21:15;;;;;;;1.50;1.17;;;8.40;98.20;;;;;;5026876;28;20492;-77
2023/04/13 06:23:42;;;;;;;1.50;1.20;;;8.50;98.20;;;;;;5042545;28;20490;-77
2023/04/13 06:26:09;;;;;;;1.50;1.10;;;8.50;98.20;;;;;;5031624;28;20486;-76
2023/04/13 06:28:36;;;;;;;1.50;1.27;;;8.50;98.20;;;;;;5037889;28;20458;-77
2023/04/13 06:31:02;;;;;;;1.50;1.20;;;8.60;98.20;;;;;;5026901;28;20462;-76
2023/04/13 06:33:29;;;;;;;1.50;1.20;;;8.60;98.20;;;;;;5031968;28;20531;-74
2023/04/13 06:35:57;;;;;;;1.50;1.10;;;8.70;98.20;;;;;;5018076;28;20455;-76
2023/04/13 06:38:24;;;;;;;1.50;1.10;;;8.80;98.20;;;;;;5043312;28;20541;-75
2023/04/13 06:40:51;;;;;;;1.50;1.10;;;8.90;98.20;;;;;;5017985;28;20491;-74
2023/04/13 06:43:18;;;;;;;1.50;1.10;;;8.90;98.20;;;;;;5035528;28;21030;-76
2023/04/13 06:45:45;;;;;;;1.50;1.17;;;9.10;98.20;;;;;;5026668;28;20555;-76
2023/04/13 06:48:11;;;;;;;1.50;1.10;;;9.20;98.20;;;;;;5010389;28;20499;-76
2023/04/13 06:50:38;;;;;;;1.50;1.10;;;9.40;98.20;;;;;;5026488;28;20463;-76
2023/04/13 06:53:06;;;;;;;1.50;1.20;;;9.40;98.20;;;;;;5033370;28;20486;-76
2023/04/13 06:55:33;;;;;;;1.50;1.10;;;9.50;98.20;;;;;;5026643;28;20511;-77
2023/04/13 06:58:00;;;;;;;1.53;1.10;;;9.70;98.20;;;;;;5026522;28;20653;-77
2023/04/13 07:00:27;;;;;;;1.50;1.10;;;9.90;98.20;;;;;;5027717;28;20796;-77
2023/04/13 07:02:54;;;;;;;1.50;1.13;;;10.10;98.20;;;;;;5035328;28;20996;-77
2023/04/13 07:05:21;;;;;;;1.50;1.20;;;10.30;98.20;;;;;;5021285;28;20460;-77
2023/04/13 07:07:47;;;;;;;1.50;1.13;;;10.40;98.20;;;;;;5035728;28;20486;-76
2023/04/13 07:10:16;;;;;;;1.50;1.10;;;10.40;98.20;;;;;;5024459;28;20877;-76
2023/04/13 07:12:42;;;;;;;1.50;1.10;;;10.40;98.20;;;;;;5027769;28;20541;-77
2023/04/13 07:15:10;;;;;;;1.57;1.20;;;10.40;98.20;;;;;;5023736;28;20463;-77
2023/04/13 07:17:36;;;;;;;1.50;1.00;;;10.40;98.20;;;;;;5025096;28;20916;-77
2023/04/13 07:20:04;;;;;;;1.50;1.00;;;10.30;98.20;;;;;;5021791;28;20460;-77
2023/04/13 07:22:32;;;;;;;1.50;1.10;;;10.30;98.20;;;;;;5018642;28;20494;-77
2023/04/13 07:24:59;;;;;;;1.50;1.00;;;10.30;98.20;;;;;;5020147;28;20844;-77
2023/04/13 07:27:27;;;;;;;1.57;1.20;;;10.40;98.20;;;;;;5030910;28;21020;-77
2023/04/13 07:29:54;;;;;;;1.50;1.00;;;10.30;98.20;;;;;;5029335;28;20486;-77
2023/04/13 07:32:22;;;;;;;1.50;1.10;;;10.20;98.20;;;;;;5029985;28;20494;-77
2023/04/13 07:34:48;;;;;;;1.50;1.10;;;10.20;98.20;;;;;;5028696;28;20938;-76
2023/04/13 07:37:15;;;;;;;1.50;1.10;;;10.20;98.20;;;;;;5030816;28;20485;-77
2023/04/13 07:39:43;;;;;;;1.50;1.10;;;10.10;98.20;;;;;;5021426;28;20539;-76
2023/04/13 07:42:09;;;;;;;1.50;1.10;;;10.00;98.20;;;;;;5022441;28;20478;-76
2023/04/13 07:44:38;;;;;;;1.50;1.10;;;10.00;98.20;;;;;;5024669;28;20486;-77
2023/04/13 07:47:05;;;;;;;1.50;1.10;;;10.00;98.20;;;;;;5017875;28;20490;-76
2023/04/13 07:49:31;;;;;;;1.50;1.23;;;9.90;98.20;;;;;;5028890;28;20464;-77
2023/04/13 07:51:59;;;;;;;1.50;1.00;;;10.00;98.20;;;;;;5016449;28;20494;-77
2023/04/13 07:54:25;;;;;;;1.50;1.30;;;10.00;98.20;;;;;;5017569;28;20468;-76
2023/04/13 07:56:52;;;;;;;1.50;1.10;;;10.00;98.20;;;;;;5018841;28;20479;-76
2023/04/13 07:59:19;;;;;;;1.50;1.10;;;10.10;98.20;;;;;;5035438;28;20945;-76
2023/04/13 08:01:47;;;;;;;1.50;1.10;;;10.20;98.20;;;;;;5018257;28;20486;-76
2023/04/13 08:04:14;;;;;;;1.50;1.10;;;10.20;98.20;;;;;;5035538;28;20836;-76
2023/04/13 08:06:40;;;;;;;1.50;1.10;;;10.30;98.20;;;;;;5028606;28;20545;-77
2023/04/13 08:09:08;;;;;;;1.50;1.10;;;10.30;98.20;;;;;;5035673;28;20502;-76
2023/04/13 08:11:35;;;;;;;1.50;1.10;;;10.40;98.20;;;;;;5021119;28;21076;-76
2023/04/13 08:14:01;;;;;;;1.50;1.10;;;10.40;98.20;;;;;;5030339;28;20464;-76
2023/04/13 08:16:32;;;;;;;1.50;1.10;;;10.40;98.20;;;;;;5022515;28;20486;-77
2023/04/13 08:19:01;;;;;;;1.50;1.10;;;10.50;98.20;;;;;;5036663;28;20497;-77
2023/04/13 08:21:28;;;;;;;1.50;1.10;;;10.50;98.20;;;;;;5017928;28;20565;-77
2023/04/13 08:23:56;;;;;;;1.50;1.20;;;10.60;98.20;;;;;;5033548;28;20494;-77
2023/04/13 08:26:23;;;;;;;1.50;1.20;;;10.60;98.20;;;;;;5026208;28;20523;-78
2023/04/13 08:28:51;;;;;;;1.50;1.10;;;10.60;98.20;;;;;;5039980;28;20819;-80
2023/04/13 08:31:19;;;;;;;1.50;1.00;;;10.70;98.20;;;;;;5026451;28;20482;-79
2023/04/13 08:33:46;;;;;;;1.50;1.10;;;10.70;98.20;;;;;;5041288;28;20491;-77
2023/04/13 08:36:15;;;;;;;1.50;1.10;;;10.80;98.20;;;;;;5023332;28;20919;-78
2023/04/13 08:38:41;;;;;;;1.50;1.00;;;10.90;98.20;;;;;;5037953;28;20522;-78
2023/04/13 08:41:09;;;;;;;1.50;1.00;;;11.00;98.20;;;;;;5016399;28;21386;-80
2023/04/13 08:43:36;;;;;;;1.50;1.10;;;11.00;98.20;;;;;;5040267;28;20912;-78
2023/04/13 08:46:04;;;;;;;1.50;1.10;;;10.90;98.20;;;;;;5011207;28;20468;-76
2023/04/13 08:48:32;;;;;;;1.50;1.00;;;10.90;98.20;;;;;;5037701;28;20459;-77
2023/04/13 08:51:00;;;;;;;1.50;1.00;;;10.90;98.20;;;;;;5022192;28;20500;-77
2023/04/13 08:53:28;;;;;;;1.50;1.10;;;10.80;98.20;;;;;;5028953;28;20477;-75
2023/04/13 08:55:59;;;;;;;1.50;1.10;;;10.80;98.20;;;;;;5026626;28;21001;-77
2023/04/13 08:58:27;;;;;;;1.50;1.10;;;10.90;98.20;;;;;;5045546;28;20488;-78
2023/04/13 09:00:55;;;;;;;1.50;1.10;;;10.90;98.20;;;;;;5022648;28;20461;-77
2023/04/13 09:03:24;;;;;;;1.50;1.10;;;10.90;98.20;;;;;;5043698;28;20543;-77
2023/04/13 09:05:57;;;;;;;1.50;1.00;;;10.90;98.20;;;;;;5025460;28;20837;-77
2023/04/13 09:08:24;;;;;;;1.50;1.10;;;10.90;98.20;;;;;;5043840;28;20821;-77
2023/04/13 09:10:55;;;;;;;1.50;1.10;;;10.80;98.20;;;;;;5020223;28;20468;-77
2023/04/13 09:13:22;;;;;;;1.50;1.10;;;10.90;98.20;;;;;;5019175;28;20479;-75
2023/04/13 09:15:49;;;;;;;1.50;1.10;;;10.80;98.20;;;;;;5013785;28;20460;-75
2023/04/13 09:18:16;;;;;;;1.50;1.10;;;10.70;98.20;;;;;;5046436;28;20450;-75
2023/04/13 09:20:42;;;;;;;1.50;1.20;;;10.80;98.20;;;;;;5019411;28;21102;-75
2023/04/13 09:23:14;;;;;;;1.50;1.10;;;10.80;98.20;;;;;;5027196;28;20483;-75
2023/04/13 09:25:42;;;;;;;1.50;1.00;;;10.80;98.20;;;;;;5016318;28;20460;-76
2023/04/13 09:28:17;;;;;;;1.50;1.10;;;10.80;98.20;;;;;;5027497;28;20499;-76
2023/04/13 09:30:45;;;;;;;1.50;1.10;;;10.90;98.20;;;;;;5031284;28;20462;-75
2023/04/13 09:33:14;;;;;;;1.50;1.00;;;11.00;98.20;;;;;;5018052;28;20930;-77
2023/04/13 09:35:41;;;;;;;1.50;1.10;;;11.00;98.20;;;;;;5033193;28;20471;-77
2023/04/13 09:38:10;;;;;;;1.50;1.10;;;11.00;98.20;;;;;;5036073;28;20486;-77
2023/04/13 09:40:47;;;;;;;1.50;1.10;;;11.10;98.20;;;;;;5030798;28;20514;-76
2023/04/13 09:43:13;;;;;;;1.50;1.07;;;11.20;98.20;;;;;;4997853;28;20490;-76
2023/04/13 09:45:43;;;;;;;1.50;1.10;;;11.30;98.20;;;;;;5008947;28;20490;-77
2023/04/13 09:48:17;;;;;;;1.50;1.07;;;11.40;98.20;;;;;;5040431;28;20547;-76
2023/04/13 09:50:44;;;;;;;1.50;1.03;;;11.60;98.20;;;;;;5027051;28;20675;-76
2023/04/13 09:53:11;;;;;;;1.50;1.10;;;11.90;98.20;;;;;;5011455;28;20478;-76
2023/04/13 09:55:39;;;;;;;1.50;1.10;;;12.30;98.20;;;;;;5024389;28;20466;-76
2023/04/13 09:58:10;;;;;;;1.50;1.10;;;12.80;98.20;;;;;;5027334;28;20481;-76
2023/04/13 10:00:38;;;;;;;1.50;1.00;;;13.10;98.20;;;;;;5018977;28;20851;-76
2023/04/13 10:03:11;;;;;;;1.50;1.00;;;13.30;98.20;;;;;;5027770;28;20478;-76
2023/04/13 10:05:38;;;;;;;1.50;1.00;;;13.30;98.20;;;;;;5021665;28;20457;-77
2023/04/13 10:08:06;;;;;;;1.50;1.00;;;13.40;98.20;;;;;;5027188;28;20540;-76
2023/04/13 10:10:33;;;;;;;1.50;1.00;;;13.40;98.10;;;;;;5033292;28;20493;-76
2023/04/13 10:13:05;;;;;;;1.50;1.00;;;13.60;98.20;;;;;;5037709;28;20540;-77
2023/04/13 10:15:48;;;;;;;1.50;1.00;;;13.80;97.10;;;;;;5031147;28;20809;-77
2023/04/13 10:18:28;;;;;;;1.73;1.63;;;13.90;97.40;;;;;;5018530;28;20978;-77
2023/04/13 10:20:58;;;;;;;1.50;1.00;;;13.80;95.20;;;;;;5016709;28;20462;-76
2023/04/13 10:23:26;;;;;;;1.50;1.10;;;13.80;95.70;;;;;;5035815;28;20494;-76
2023/04/13 10:25:56;;;;;;;1.50;0.90;;;13.70;95.70;;;;;;5012814;28;20460;-76
2023/04/13 10:28:23;;;;;;;1.50;1.00;;;13.70;95.60;;;;;;5039196;28;20464;-76
2023/04/13 10:30:50;;;;;;;1.50;1.00;;;13.80;94.70;;;;;;5008662;28;20474;-76
2023/04/13 10:33:19;;;;;;;1.50;1.00;;;13.80;95.30;;;;;;5032417;28;20484;-76
2023/04/13 10:35:56;;;;;;;1.50;1.00;;;13.80;94.30;;;;;;5031059;28;20694;-75
2023/04/13 10:38:23;;;;;;;1.50;1.00;;;13.70;93.60;;;;;;5033776;28;20495;-76
2023/04/13 10:40:51;;;;;;;1.50;1.00;;;13.70;94.50;;;;;;5018008;28;20478;-76
2023/04/13 10:43:30;;;;;;;1.50;1.00;;;13.60;94.10;;;;;;5039388;28;20490;-74
2023/04/13 10:46:07;;;;;;;1.50;1.00;;;13.60;94.60;;;;;;5017520;28;20470;-76
2023/04/13 10:48:36;;;;;;;1.50;1.00;;;13.40;93.80;;;;;;5036105;28;20485;-75
2023/04/13 10:51:03;;;;;;;1.50;1.00;;;13.30;94.10;;;;;;5013753;28;21042;-77
2023/04/13 10:53:31;;;;;;;1.50;1.00;;;13.10;94.40;;;;;;5033936;28;20483;-77
2023/04/13 10:55:58;;;;;;;1.47;0.90;;;13.00;95.40;;;;;;5013394;28;20465;-76
2023/04/13 10:58:27;;;;;;;1.50;1.00;;;13.00;95.90;;;;;;5039230;28;20829;-77
2023/04/13 11:00:54;;;;;;;1.50;1.00;;;13.00;96.60;;;;;;5024165;28;20459;-76
2023/04/13 11:03:21;;;;;;;1.50;1.00;;;13.00;95.10;;;;;;5028055;28;20500;-77
2023/04/13 11:05:57;;;;;;;1.50;1.10;;;13.10;94.90;;;;;;5022980;28;20485;-77
2023/04/13 11:08:24;;;;;;;1.47;1.00;;;13.20;95.50;;;;;;5042623;28;20819;-77
2023/04/13 11:10:52;;;;;;;1.50;1.00;;;13.40;94.50;;;;;;5020045;28;20482;-78
2023/04/13 11:13:18;;;;;;;1.50;1.00;;;13.30;96.50;;;;;;5044835;28;20636;-77
2023/04/13 11:15:45;;;;;;;1.50;1.07;;;13.30;97.90;;;;;;5027219;28;20979;-77
2023/04/13 11:18:12;;;;;;;1.50;1.00;;;13.20;97.30;;;;;;5013605;28;20471;-77
2023/04/13 11:20:40;;;;;;;7.33;3.10;;;13.10;96.60;;;;;;5022773;28;20493;-77
2023/04/13 11:23:17;;;;;;;1.47;0.97;;;13.00;96.90;;;;;;5026842;28;20479;-77
2023/04/13 11:25:53;;;;;;;1.43;1.00;;;13.10;97.80;;;;;;5018302;28;20464;-77
2023/04/13 11:28:21;;;;;;;1.40;0.90;;;13.30;97.70;;;;;;5024487;28;20478;-77
2023/04/13 11:30:53;;;;;;;1.50;1.00;;;13.60;96.90;;;;;;5021529;28;20502;-77
2023/04/13 11:33:25;;;;;;;1.50;1.00;;;13.90;94.10;;;;;;5029895;28;20476;-75
2023/04/13 11:35:53;;;;;;;1.50;1.00;;;14.10;93.10;;;;;;5018676;28;20466;-75
2023/04/13 11:38:21;;;;;;;1.50;0.90;;;14.20;92.00;;;;;;5029913;28;20471;-75
2023/04/13 11:40:49;;;;;;;1.50;1.00;;;14.10;92.40;;;;;;5018647;28;20866;-75
2023/04/13 11:43:16;;;;;;;1.50;1.00;;;14.00;91.90;;;;;;5046321;28;21007;-75
2023/04/13 11:45:43;;;;;;;1.50;1.10;;;13.90;92.30;;;;;;5026783;28;20468;-75
2023/04/13 11:48:11;;;;;;;1.50;1.00;;;13.80;92.60;;;;;;5031004;28;20512;-75
2023/04/13 11:50:38;;;;;;;1.47;1.00;;;13.70;93.00;;;;;;5024497;28;20463;-75
2023/04/13 11:53:06;;;;;;;1.47;0.97;;;13.60;93.40;;;;;;5029632;28;20483;-75
2023/04/13 11:55:36;;;;;;;1.50;1.10;;;13.60;92.60;;;;;;5026221;28;20560;-75
2023/04/13 11:58:08;;;;;;;1.50;1.00;;;13.50;93.30;;;;;;5023060;28;20482;-75
2023/04/13 12:00:39;;;;;;;1.50;1.00;;;13.60;93.20;;;;;;5027676;28;20851;-75
2023/04/13 12:03:14;;;;;;;1.50;1.00;;;13.60;93.80;;;;;;5032748;28;20831;-74
2023/04/13 12:05:41;;;;;;;1.50;1.00;;;13.70;93.80;;;;;;5027935;28;20471;-74
2023/04/13 12:08:08;;;;;;;1.50;0.90;;;13.90;93.20;;;;;;5029961;28;20478;-77
2023/04/13 12:10:37;;;;;;;1.50;0.90;;;13.90;93.10;;;;;;5019501;28;20499;-77
2023/04/13 12:13:08;;;;;;;1.50;1.00;;;14.10;93.80;;;;;;5026960;28;21003;-77
2023/04/13 12:15:38;;;;;;;1.50;1.00;;;14.40;91.90;;;;;;5018825;28;20460;-76
2023/04/13 12:18:05;;;;;;;1.50;1.00;;;14.80;90.70;;;;;;5027443;28;20560;-76
2023/04/13 12:20:37;;;;;;;1.50;1.00;;;15.00;88.60;;;;;;5028119;28;20476;-77
2023/04/13 12:23:04;;;;;;;1.50;0.90;;;15.40;89.40;;;;;;5022306;28;20510;-76
2023/04/13 12:25:32;;;;;;;1.50;0.90;;;15.60;87.30;;;;;;5028807;28;20456;-77
2023/04/13 12:28:00;;;;;;;1.50;0.90;;;15.70;85.90;;;;;;5019808;28;20532;-77
2023/04/13 12:30:27;;;;;;;1.40;0.90;;;15.80;86.40;;;;;;5023904;28;20463;-77
2023/04/13 12:32:55;;;;;;;1.50;1.00;;;15.90;86.00;;;;;;5023770;28;20871;-77
2023/04/13 12:35:22;;;;;;;1.47;0.90;;;15.90;85.00;;;;;;5022845;28;20467;-78
2023/04/13 12:37:51;;;;;;;1.47;0.90;;;16.00;85.50;;;;;;5030407;28;20477;-77
2023/04/13 12:40:18;;;;;;;1.50;1.00;;;16.00;84.40;;;;;;5025805;28;20533;-78
2023/04/13 12:42:45;;;;;;;1.47;0.90;;;15.90;83.40;;;;;;5029939;28;20485;-77
2023/04/13 12:45:15;;;;;;;1.50;1.10;;;15.80;84.20;;;;;;5031424;28;20470;-77
2023/04/13 12:47:42;;;;;;;1.40;0.90;;;15.90;84.20;;;;;;5021772;28;20871;-77
2023/04/13 12:50:10;;;;;;;1.47;1.00;;;15.90;83.30;;;;;;5026973;28;20846;-77
2023/04/13 12:52:39;;;;;;;1.50;0.90;;;15.90;83.90;;;;;;5017775;28;20477;-78
2023/04/13 12:55:07;;;;;;;1.50;0.90;;;16.10;83.00;;;;;;5028919;28;20462;-78
2023/04/13 12:57:34;;;;;;;1.50;1.00;;;16.30;82.60;;;;;;5022081;28;20911;-78